Skagway, AK (99840)

11:09 PM AKDT on October 25, 2014 (GMT -0800)
Skagway | Change Station
CLOSE
Current Station
Airport
Location: Skagway,
Elevation: 16 ft
Nearby Weather Stations

Elev 16 ft 59.46 °N, 135.32 °W | Updated 16 minutes ago

Overcast
Overcast
39 °F
Feels Like 39 °F
N
0
Wind Variable Wind from North

Today
High -- | Low -- °F
--% Chance of Precip.
Yesterday
High -- | Low -- °F
Precip. -- in
8:04 AM 5:25 PM
Waxing Crescent, 6% visible
Pressure 29.73 in
Visibility 10.0 miles
Clouds Overcast 9000 ft
Dew Point 34 °F
Humidity 82%
Rainfall 0.00 in
Snow Depth Not available.
UV 0 out of 12
Pollen Not available.
Air Quality Not available.
Flu Activity Local Activity
METAR PAGY 260653Z AUTO 00000KT 10SM OVC090 04/01 A2973 RMK AO2 SLP068 T00390011 TSNO $

More Conditions Fewer Conditions

Pressure 29.73 in
Visibility 10.0 miles
Clouds Overcast 9000 ft
Dew Point 34 °F
Humidity 82%
Rainfall 0.00 in
Snow Depth Not available.
UV 0 out of 12
Pollen Not available.
Air Quality Not available.
Flu Activity Local Activity
METAR PAGY 260653Z AUTO 00000KT 10SM OVC090 04/01 A2973 RMK AO2 SLP068 T00390011 TSNO $

More Conditions Fewer Conditions

10-Day Weather Forecast

Almanac

Astronomy

Oct. 25, 2014 Rise Set
Actual Time 8:04 AM AKDT 5:25 PM AKDT
Civil Twilight 7:21 AM AKDT 6:08 PM AKDT
Nautical Twilight 6:33 AM AKDT 6:55 PM AKDT
Astronomical Twilight 5:45 AM AKDT 7:43 PM AKDT
Moon 10:12 AM AKDT (10/25) 6:30 PM AKDT (10/25)
Length of Visible Light 10h 46m
Length of Day
9h 20m
Tomorrow will be 5m 8s shorter.
Waxing Crescent, 6% of the Moon is Illuminated
Oct 26
Waxing Crescent
Oct 30
First Quarter
Nov 6
Full
Nov 14
Last Quarter
Nov 22
New

Community

WunderPhotos

Upload Photos

1,765,115 photos uploaded!

Nearby

Snow Depth

Station Depth Elevation
Long Lake 0 in 820 ft
Upper Tsaina River 12 in 1750 ft
Granite Creek 7 in 1240 ft
Grandview 3 in 1100 ft
Turnagain Pass 6 in 1880 ft

Earthquake Activity

City Distance Mag. Time & Date
No recent earthquake activity has been reported nearby.
Minimum magnitude displayed is 2.5.

Coastal Water Temperatures

Place Temperature
No Stations Reporting

Nearby Weather Stations